Time;durP1;ratioP1;P1;durP2;ratioP2;P2;SDS_P1;SDS_P2;PMS_P1;PMS_P2;Temp;Humidity;BMP_temperature;BMP_pressure;BME280_temperature;BME280_humidity;BME280_pressure;Samples;Min_cycle;Max_cycle;Signal;HPM_P1;HPM_P2
2021/03/16 00:00:59;;;;;;;13.15;4.40;;;;;;;24.65;49.08;101251.81;5072237;28;20021;-61
2021/03/16 00:03:25;;;;;;;13.52;4.30;;;;;;;24.65;49.22;101257.31;5072791;28;20027;-62
2021/03/16 00:05:50;;;;;;;11.77;4.05;;;;;;;24.64;49.36;101250.13;5072628;28;20100;-61
2021/03/16 00:08:15;;;;;;;12.32;4.70;;;;;;;24.70;49.21;101252.06;5072462;28;20422;-63
2021/03/16 00:10:40;;;;;;;14.43;4.90;;;;;;;24.71;49.62;101245.53;5071662;28;20028;-61
2021/03/16 00:13:06;;;;;;;14.35;4.53;;;;;;;24.66;50.02;101252.66;5072306;28;20024;-62
2021/03/16 00:15:31;;;;;;;10.82;3.83;;;;;;;24.64;50.16;101258.38;5072544;28;20078;-61
2021/03/16 00:17:56;;;;;;;12.13;3.83;;;;;;;24.56;50.40;101264.03;5071783;28;20266;-61
2021/03/16 00:20:22;;;;;;;9.38;4.28;;;;;;;24.57;49.77;101265.75;5072313;28;20375;-61
2021/03/16 00:22:47;;;;;;;16.27;4.80;;;;;;;24.53;49.62;101275.44;5072285;28;20024;-62
2021/03/16 00:25:13;;;;;;;11.75;4.63;;;;;;;24.55;49.42;101274.19;5072403;28;20079;-61
2021/03/16 00:27:38;;;;;;;11.45;3.97;;;;;;;24.56;49.19;101272.28;5071926;28;20029;-62
2021/03/16 00:30:05;;;;;;;13.93;4.00;;;;;;;24.55;49.00;101278.84;5071553;28;20047;-61
2021/03/16 00:32:31;;;;;;;12.35;4.15;;;;;;;24.50;48.72;101281.31;5071897;28;20031;-61
2021/03/16 00:34:56;;;;;;;11.75;4.72;;;;;;;24.48;48.62;101280.69;5071905;28;20033;-62
2021/03/16 00:37:21;;;;;;;14.50;4.85;;;;;;;24.53;48.54;101280.94;5072276;28;20024;-63
2021/03/16 00:39:47;;;;;;;14.10;4.28;;;;;;;24.48;48.45;101283.44;5072303;28;20066;-62
2021/03/16 00:42:12;;;;;;;13.00;3.90;;;;;;;24.44;48.08;101288.47;5072463;28;20066;-61
2021/03/16 00:44:37;;;;;;;12.52;4.07;;;;;;;24.45;48.32;101283.84;5072229;28;20464;-62
2021/03/16 00:47:02;;;;;;;10.68;4.03;;;;;;;24.48;48.36;101294.41;5054133;28;20028;-61
2021/03/16 00:49:28;;;;;;;12.10;4.22;;;;;;;24.49;48.22;101293.38;5072336;28;20024;-61
2021/03/16 00:51:53;;;;;;;11.38;4.22;;;;;;;24.50;48.56;101286.81;5071903;28;20047;-61
2021/03/16 00:54:18;;;;;;;13.77;4.43;;;;;;;24.47;48.40;101292.72;5071635;28;20041;-61
2021/03/16 00:56:43;;;;;;;14.02;4.57;;;;;;;24.42;48.54;101290.59;5072059;28;20037;-61
2021/03/16 00:59:09;;;;;;;11.30;4.18;;;;;;;24.43;48.60;101292.28;5072014;28;20103;-61
2021/03/16 01:01:34;;;;;;;13.00;4.32;;;;;;;24.40;48.27;101289.94;5071172;28;20047;-61
2021/03/16 01:03:59;;;;;;;11.57;4.55;;;;;;;24.41;47.64;101293.53;5071688;28;20460;-61
2021/03/16 01:06:25;;;;;;;14.80;4.50;;;;;;;24.41;47.71;101288.88;5071880;28;20459;-61
2021/03/16 01:08:50;;;;;;;13.02;4.50;;;;;;;24.39;48.14;101291.00;5072003;28;20024;-61
2021/03/16 01:11:15;;;;;;;12.30;4.80;;;;;;;24.37;48.14;101284.00;5071788;28;20385;-61
2021/03/16 01:13:40;;;;;;;11.57;4.32;;;;;;;24.38;48.25;101285.69;5071979;28;20020;-61
2021/03/16 01:16:07;;;;;;;11.82;4.05;;;;;;;24.38;47.92;101288.44;5071355;28;20058;-61
2021/03/16 01:18:33;;;;;;;11.88;3.97;;;;;;;24.34;47.17;101295.38;5071660;28;20024;-62
2021/03/16 01:20:58;;;;;;;14.38;4.38;;;;;;;24.35;47.61;101294.31;5071727;28;20024;-62
2021/03/16 01:23:23;;;;;;;11.18;3.42;;;;;;;24.42;46.99;101297.97;5075368;28;20024;-61
2021/03/16 01:25:48;;;;;;;10.52;4.57;;;;;;;24.38;47.88;101308.53;5075535;28;20016;-61
2021/03/16 01:28:14;;;;;;;10.85;4.03;;;;;;;24.36;47.85;101309.78;5075453;28;20029;-61
2021/03/16 01:30:39;;;;;;;11.52;3.70;;;;;;;24.36;48.04;101313.38;5075439;28;20020;-61
2021/03/16 01:33:04;;;;;;;11.60;4.35;;;;;;;24.34;47.97;101306.38;5075169;28;20029;-61
2021/03/16 01:35:30;;;;;;;14.75;4.70;;;;;;;24.29;47.99;101307.81;5075551;28;20066;-61
2021/03/16 01:37:56;;;;;;;13.05;4.93;;;;;;;24.31;48.39;101310.38;5057061;28;20024;-61
2021/03/16 01:40:36;;;;;;;12.98;4.00;;;;;;;24.30;47.38;101306.78;5074684;28;20486;-61
2021/03/16 01:43:12;;;;;;;11.95;4.20;;;;;;;24.29;47.62;101298.72;5075115;28;20021;-61
2021/03/16 01:45:38;;;;;;;17.05;4.57;;;;;;;24.27;47.38;101307.13;5075283;28;20095;-62
2021/03/16 01:48:05;;;;;;;12.88;4.45;;;;;;;24.30;47.11;101304.03;5057134;28;20036;-61
2021/03/16 01:50:30;;;;;;;12.55;5.32;;;;;;;24.24;48.13;101301.19;5075074;28;20099;-61
2021/03/16 01:52:57;;;;;;;12.38;4.10;;;;;;;24.25;47.92;101317.47;5074962;28;20103;-61
2021/03/16 01:55:22;;;;;;;11.00;4.43;;;;;;;24.24;48.62;101304.78;5074883;28;20044;-61
2021/03/16 01:57:52;;;;;;;10.20;4.03;;;;;;;24.26;48.24;101313.69;5074930;28;20391;-61
2021/03/16 02:00:18;;;;;;;11.43;3.97;;;;;;;24.30;48.52;101309.50;5074431;28;20025;-62
2021/03/16 02:02:44;;;;;;;13.65;4.82;;;;;;;24.29;49.19;101307.81;5074735;28;20024;-62
2021/03/16 02:05:10;;;;;;;10.35;3.78;;;;;;;24.29;49.99;101316.06;5056765;28;20483;-61
2021/03/16 02:07:43;;;;;;;13.93;4.75;;;;;;;24.27;50.37;101315.38;5074869;28;20539;-61
2021/03/16 02:10:39;;;;;;;13.57;4.18;;;;;;;24.25;50.17;101312.00;5074670;28;20036;-61
2021/03/16 02:13:09;;;;;;;12.13;4.13;;;;;;;24.27;49.75;101315.38;5074246;28;20586;-62
2021/03/16 02:15:38;;;;;;;11.02;4.25;;;;;;;24.26;49.95;101310.09;5074359;28;20040;-62
2021/03/16 02:18:12;;;;;;;12.93;4.93;;;;;;;24.22;49.93;101312.41;5073775;28;20033;-62
2021/03/16 02:20:51;;;;;;;13.32;4.75;;;;;;;24.22;50.04;101315.13;5074066;28;20044;-61
2021/03/16 02:23:40;;;;;;;9.88;4.00;;;;;;;24.27;49.94;101311.78;5074561;28;20078;-62
2021/03/16 02:26:14;;;;;;;11.13;4.72;;;;;;;24.26;49.58;101330.16;5074265;28;20024;-62
2021/03/16 02:29:11;;;;;;;11.23;3.75;;;;;;;24.25;49.57;101322.97;5074835;28;20022;-61
2021/03/16 02:31:44;;;;;;;13.40;4.47;;;;;;;24.25;48.96;101333.13;5074389;28;20031;-61
2021/03/16 02:34:11;;;;;;;13.68;4.50;;;;;;;24.23;48.71;101330.56;5073581;28;20048;-61
2021/03/16 02:36:37;;;;;;;11.77;3.90;;;;;;;24.27;49.57;101331.88;5072787;28;20151;-61
2021/03/16 02:39:05;;;;;;;12.90;4.57;;;;;;;24.27;48.51;101329.13;5074155;28;20439;-62
2021/03/16 02:41:33;;;;;;;12.02;4.18;;;;;;;24.27;49.33;101331.88;5073185;28;20039;-61
2021/03/16 02:43:59;;;;;;;12.45;4.00;;;;;;;24.24;49.73;101332.28;5074059;28;20031;-61
2021/03/16 02:46:26;;;;;;;10.98;4.13;;;;;;;24.23;49.43;101336.06;5073906;28;20419;-62
2021/03/16 02:48:53;;;;;;;15.95;5.10;;;;;;;24.18;49.46;101344.03;5073665;28;20062;-61
2021/03/16 02:51:21;;;;;;;12.27;4.05;;;;;;;24.24;48.48;101351.50;5073698;28;20358;-61
2021/03/16 02:53:47;;;;;;;10.32;3.88;;;;;;;24.23;48.81;101352.56;5073665;28;20045;-62
2021/03/16 02:56:14;;;;;;;13.15;4.53;;;;;;;24.18;48.45;101349.53;5073243;28;20356;-62
2021/03/16 02:58:40;;;;;;;12.50;4.55;;;;;;;24.20;48.54;101352.94;5073912;28;20375;-62
2021/03/16 03:01:07;;;;;;;10.20;4.07;;;;;;;24.18;48.48;101357.78;5073670;28;20024;-61
2021/03/16 03:03:36;;;;;;;12.20;4.22;;;;;;;24.14;48.33;101355.63;5073812;28;20031;-62
2021/03/16 03:06:02;;;;;;;15.23;4.63;;;;;;;24.19;48.09;101362.25;5073600;28;20024;-61
2021/03/16 03:08:29;;;;;;;12.40;4.35;;;;;;;24.13;48.35;101357.53;5055712;28;20025;-61
2021/03/16 03:10:56;;;;;;;10.65;3.90;;;;;;;24.15;47.98;101371.06;5073559;28;20025;-61
2021/03/16 03:13:21;;;;;;;11.98;4.00;;;;;;;24.16;48.83;101376.34;5073408;28;20024;-62
2021/03/16 03:15:46;;;;;;;11.98;3.95;;;;;;;24.16;48.78;101373.59;5073485;28;20486;-61
2021/03/16 03:18:12;;;;;;;13.38;3.97;;;;;;;24.23;48.17;101377.28;5072830;28;20021;-61
2021/03/16 03:20:37;;;;;;;13.93;4.68;;;;;;;24.21;48.63;101373.88;5072941;28;20031;-62
2021/03/16 03:23:14;;;;;;;11.35;4.10;;;;;;;24.15;48.78;101385.63;5073105;28;20420;-61
2021/03/16 03:25:43;;;;;;;12.98;4.13;;;;;;;24.08;49.06;101365.50;5072541;28;20070;-61
2021/03/16 03:28:15;;;;;;;11.80;3.70;;;;;;;24.11;48.62;101376.09;5073203;28;20025;-61
2021/03/16 03:30:41;;;;;;;12.07;4.43;;;;;;;24.14;48.22;101383.94;5073337;28;20029;-61
2021/03/16 03:33:08;;;;;;;11.23;3.80;;;;;;;24.11;47.90;101380.75;5073171;28;20024;-61
2021/03/16 03:35:37;;;;;;;11.70;3.95;;;;;;;24.10;48.14;101374.41;5073123;28;20025;-61
2021/03/16 03:38:04;;;;;;;12.55;3.97;;;;;;;24.10;48.16;101385.38;5072923;28;20082;-61
2021/03/16 03:40:30;;;;;;;11.95;4.15;;;;;;;24.11;47.47;101387.09;5071772;28;20021;-61
2021/03/16 03:42:58;;;;;;;12.25;4.25;;;;;;;24.09;47.56;101383.69;5072925;28;20021;-62
2021/03/16 03:45:27;;;;;;;12.25;4.43;;;;;;;;;;5072947;28;20021;-62
2021/03/16 03:47:55;;;;;;;11.20;3.88;;;;;;;24.08;47.60;101379.25;5072890;28;20094;-61
2021/03/16 03:50:21;;;;;;;11.93;4.13;;;;;;;24.06;47.92;101378.59;5072406;28;20029;-61
2021/03/16 03:52:48;;;;;;;11.73;4.50;;;;;;;24.09;48.21;101383.69;5072681;28;20028;-62
2021/03/16 03:55:14;;;;;;;11.70;3.42;;;;;;;24.09;48.73;101383.69;5072557;28;20048;-61
2021/03/16 03:57:43;;;;;;;12.43;4.05;;;;;;;24.15;48.47;101387.53;5072814;28;20486;-61
2021/03/16 04:00:15;;;;;;;14.30;4.55;;;;;;;24.13;49.15;101395.97;5072036;28;20240;-61
2021/03/16 04:02:41;;;;;;;13.27;5.00;;;;;;;;;;5072809;28;20040;-61
2021/03/16 04:05:07;;;;;;;11.07;4.43;;;;;;;;;;5072529;28;20024;-61
2021/03/16 04:07:34;;;;;;;11.13;3.72;;;;;;;24.12;49.78;101399.78;5072693;28;20032;-61
2021/03/16 04:09:59;;;;;;;11.38;3.83;;;;;;;24.09;50.25;101405.66;5072547;28;20024;-61
2021/03/16 04:12:25;;;;;;;11.20;4.35;;;;;;;24.11;50.11;101398.06;5072326;28;20035;-61
2021/03/16 04:14:50;;;;;;;10.60;4.75;;;;;;;24.11;49.65;101403.56;5072568;28;20075;-62
2021/03/16 04:17:16;;;;;;;13.32;5.00;;;;;;;24.14;50.05;101403.16;5072157;28;20032;-61
2021/03/16 04:19:42;;;;;;;10.20;3.45;;;;;;;24.13;50.40;101406.13;5072108;28;20032;-61
2021/03/16 04:22:08;;;;;;;11.18;4.05;;;;;;;24.09;50.40;101411.16;5072367;28;20020;-61
2021/03/16 04:24:34;;;;;;;11.63;3.78;;;;;;;24.07;49.76;101410.50;5072298;28;20024;-61
2021/03/16 04:26:59;;;;;;;10.65;4.00;;;;;;;24.09;49.88;101405.66;5072229;28;20024;-61
2021/03/16 04:29:24;;;;;;;10.75;3.80;;;;;;;24.09;50.24;101407.56;5072617;28;20036;-61
2021/03/16 04:31:49;;;;;;;10.43;3.92;;;;;;;24.10;50.18;101406.50;5072326;28;20039;-61
2021/03/16 04:34:15;;;;;;;14.15;5.20;;;;;;;24.12;49.66;101410.75;5072187;28;20028;-61
2021/03/16 04:36:40;;;;;;;11.32;4.15;;;;;;;24.11;49.70;101409.06;5071734;28;20040;-62
2021/03/16 04:39:05;;;;;;;12.48;5.22;;;;;;;24.10;49.38;101407.38;5072286;28;20067;-61
2021/03/16 04:41:30;;;;;;;12.43;4.45;;;;;;;24.10;49.61;101401.88;5072476;28;20032;-61
2021/03/16 04:43:56;;;;;;;12.88;4.18;;;;;;;24.09;49.99;101402.91;5072161;28;20397;-61
2021/03/16 04:46:21;;;;;;;11.93;4.00;;;;;;;24.11;49.46;101403.56;5072214;28;20087;-62
2021/03/16 04:48:46;;;;;;;13.43;3.90;;;;;;;24.09;49.58;101400.16;5071876;28;20028;-62
2021/03/16 04:51:12;;;;;;;12.27;4.35;;;;;;;24.07;49.18;101402.28;5072227;28;20398;-61
2021/03/16 04:53:37;;;;;;;9.93;4.25;;;;;;;24.08;49.06;101403.13;5071856;28;20059;-61
2021/03/16 04:56:02;;;;;;;15.57;4.40;;;;;;;24.05;50.21;101407.09;5071796;28;20364;-61
2021/03/16 04:58:28;;;;;;;12.20;4.20;;;;;;;24.08;48.65;101414.94;5076163;28;20024;-61
2021/03/16 05:00:53;;;;;;;12.38;4.97;;;;;;;24.08;48.80;101419.59;5075455;28;20502;-62
2021/03/16 05:03:18;;;;;;;13.00;4.45;;;;;;;25.21;45.95;101418.66;5075990;28;20035;-61
2021/03/16 05:05:43;;;;;;;12.55;4.85;;;;;;;25.43;45.17;101426.63;5076019;28;20371;-61
2021/03/16 05:08:09;;;;;;;13.02;5.07;;;;;;;25.57;45.57;101421.19;5075898;28;20067;-61
2021/03/16 05:10:34;;;;;;;13.10;4.47;;;;;;;25.80;45.16;101421.69;5075626;28;20485;-61
2021/03/16 05:12:59;;;;;;;14.05;4.32;;;;;;;26.00;44.81;101427.25;5075319;28;20029;-61
2021/03/16 05:15:24;;;;;;;14.40;3.83;;;;;;;25.99;44.70;101426.41;5075833;28;20463;-62
2021/03/16 05:17:50;;;;;;;11.88;4.55;;;;;;;26.04;44.87;101428.56;5075245;28;20025;-62
2021/03/16 05:20:15;;;;;;;10.90;4.45;;;;;;;26.28;44.49;101430.72;5075201;28;20039;-62
2021/03/16 05:22:40;;;;;;;14.63;4.18;;;;;;;26.23;45.13;101421.41;5075586;28;20352;-61
2021/03/16 05:25:07;;;;;;;12.95;4.80;;;;;;;26.27;45.67;101428.19;5075529;28;20066;-61
2021/03/16 05:27:32;;;;;;;12.38;4.40;;;;;;;26.15;45.38;101424.34;5057777;28;20020;-62
2021/03/16 05:29:57;;;;;;;11.63;4.22;;;;;;;26.18;45.04;101437.69;5075409;28;20025;-61
2021/03/16 05:32:23;;;;;;;14.35;5.03;;;;;;;26.18;45.05;101430.25;5075422;28;20028;-61
2021/03/16 05:34:48;;;;;;;12.32;4.63;;;;;;;26.26;45.02;101437.50;5075386;28;20016;-61
2021/03/16 05:37:13;;;;;;;13.70;4.65;;;;;;;26.22;45.01;101434.31;5075286;28;20025;-61
2021/03/16 05:39:38;;;;;;;13.65;5.25;;;;;;;26.28;44.93;101438.13;5075612;28;20024;-61
2021/03/16 05:42:05;;;;;;;14.30;4.95;;;;;;;26.30;43.88;101434.09;5075047;28;20021;-61
2021/03/16 05:44:30;;;;;;;13.75;4.95;;;;;;;26.38;43.78;101435.88;5057358;28;20024;-61
2021/03/16 05:46:56;;;;;;;13.15;5.15;;;;;;;26.38;43.92;101435.88;5074413;28;20029;-61
2021/03/16 05:49:22;;;;;;;14.60;4.60;;;;;;;26.41;44.28;101445.63;5075233;28;20440;-61
2021/03/16 05:51:48;;;;;;;15.93;4.72;;;;;;;26.39;43.97;101445.81;5074974;28;20034;-61
2021/03/16 05:54:15;;;;;;;11.13;4.68;;;;;;;26.40;44.79;101463.22;5074703;28;20044;-61
2021/03/16 05:56:41;;;;;;;15.00;5.88;;;;;;;26.49;44.45;101464.69;5074951;28;20062;-61
2021/03/16 05:59:08;;;;;;;12.20;4.13;;;;;;;26.55;44.65;101459.19;5074945;28;20028;-61
2021/03/16 06:01:33;;;;;;;11.68;4.13;;;;;;;26.61;45.48;101461.09;5075052;28;20029;-61
2021/03/16 06:04:00;;;;;;;13.95;4.40;;;;;;;26.65;45.35;101462.38;5075108;28;20034;-61
2021/03/16 06:06:26;;;;;;;15.30;5.47;;;;;;;26.74;46.13;101463.03;5074842;28;20108;-61
2021/03/16 06:08:51;;;;;;;13.23;4.85;;;;;;;26.67;45.75;101463.00;5073558;28;20490;-61
2021/03/16 06:11:16;;;;;;;13.20;4.65;;;;;;;26.66;46.55;101463.22;5074905;28;20039;-61
2021/03/16 06:13:53;;;;;;;11.63;4.20;;;;;;;26.64;46.82;101468.94;5056746;28;20020;-61
2021/03/16 06:16:19;;;;;;;11.27;4.05;;;;;;;26.64;46.69;101468.94;5074170;28;20048;-61
2021/03/16 06:18:46;;;;;;;14.10;5.13;;;;;;;26.60;47.31;101462.16;5073844;28;20104;-62
2021/03/16 06:21:18;;;;;;;13.57;4.40;;;;;;;26.63;46.91;101460.88;5074215;28;20032;-61
2021/03/16 06:23:52;;;;;;;16.23;5.03;;;;;;;26.72;46.93;101464.31;5074255;28;20029;-61
2021/03/16 06:26:18;;;;;;;11.88;4.40;;;;;;;26.67;46.19;101468.53;5074372;28;20479;-61
2021/03/16 06:28:44;;;;;;;13.20;4.45;;;;;;;26.69;46.50;101474.66;5073288;28;20488;-61
2021/03/16 06:31:19;;;;;;;12.10;4.25;;;;;;;26.67;46.14;101468.53;5074424;28;20054;-61
2021/03/16 06:33:44;;;;;;;13.80;4.72;;;;;;;26.67;46.05;101473.19;5074372;28;20028;-61
2021/03/16 06:36:11;;;;;;;14.98;5.13;;;;;;;26.71;45.88;101471.72;5073965;28;20016;-61
2021/03/16 06:38:38;;;;;;;14.63;5.28;;;;;;;26.69;46.12;101477.44;5056343;28;20021;-61
2021/03/16 06:41:15;;;;;;;15.32;4.97;;;;;;;26.67;45.99;101476.78;5074194;28;20048;-61
2021/03/16 06:44:01;;;;;;;12.27;4.07;;;;;;;26.65;46.81;101470.66;5079699;28;20095;-61
2021/03/16 06:46:38;;;;;;;10.40;3.38;;;;;;;26.71;45.52;101485.53;5063647;28;20463;-61
2021/03/16 06:49:15;;;;;;;14.70;4.97;;;;;;;26.80;44.83;101477.88;5073964;28;20028;-61
2021/03/16 06:51:41;;;;;;;14.10;4.45;;;;;;;26.80;45.18;101481.47;5055985;28;20020;-61
2021/03/16 06:54:08;;;;;;;10.13;3.78;;;;;;;26.91;44.94;101491.03;5072485;28;20552;-62
2021/03/16 06:56:34;;;;;;;13.60;4.07;;;;;;;27.04;45.34;101484.66;5070839;28;20284;-61
2021/03/16 06:59:00;;;;;;;11.63;4.68;;;;;;;27.18;44.98;101492.72;5072627;28;20028;-61
2021/03/16 07:01:30;;;;;;;13.90;4.45;;;;;;;27.28;44.98;101493.13;5073739;28;20031;-61
2021/03/16 07:03:55;;;;;;;13.25;4.80;;;;;;;27.02;45.90;101487.63;5072903;28;20060;-62
2021/03/16 07:06:21;;;;;;;12.88;4.35;;;;;;;26.96;45.99;101488.47;5081446;28;20039;-61
2021/03/16 07:08:48;;;;;;;12.48;4.93;;;;;;;26.94;46.30;101498.88;5082645;28;20017;-61
2021/03/16 07:11:16;;;;;;;14.27;5.78;;;;;;;26.86;45.98;101499.06;5068401;28;20067;-61
2021/03/16 07:13:42;;;;;;;11.73;4.55;;;;;;;26.75;46.19;101496.97;5059117;28;20051;-61
2021/03/16 07:16:10;;;;;;;15.50;4.88;;;;;;;26.81;45.68;101496.13;5072742;28;20055;-61
2021/03/16 07:18:37;;;;;;;13.93;5.15;;;;;;;26.75;45.79;101499.72;5071575;28;20036;-61
2021/03/16 07:21:05;;;;;;;13.02;4.90;;;;;;;26.85;45.39;101492.72;5071372;28;20029;-61
2021/03/16 07:23:37;;;;;;;16.13;5.70;;;;;;;26.77;46.15;101501.22;5073126;28;20035;-62
2021/03/16 07:26:04;;;;;;;14.77;4.95;;;;;;;26.82;45.45;101503.31;5070126;28;20029;-62
2021/03/16 07:28:31;;;;;;;13.52;4.93;;;;;;;26.89;45.11;101504.19;5079944;28;20036;-61
2021/03/16 07:30:57;;;;;;;14.43;5.35;;;;;;;26.81;46.15;101507.16;5076772;28;20031;-61
2021/03/16 07:33:23;;;;;;;13.15;4.55;;;;;;;26.80;45.41;101488.91;5072611;28;20062;-61
2021/03/16 07:35:49;;;;;;;15.55;4.80;;;;;;;26.85;45.07;101494.63;5072462;28;20430;-61
2021/03/16 07:38:14;;;;;;;11.77;4.32;;;;;;;26.81;44.71;101507.16;5084852;28;20488;-62
2021/03/16 07:40:43;;;;;;;14.13;4.35;;;;;;;26.93;44.65;101516.50;5073084;28;20058;-61
2021/03/16 07:43:12;;;;;;;12.38;4.13;;;;;;;26.91;44.45;101507.59;5072352;28;20078;-61
2021/03/16 07:45:38;;;;;;;15.70;4.95;;;;;;;26.98;44.07;101505.66;5072422;28;20275;-62
2021/03/16 07:48:17;;;;;;;10.05;4.72;;;;;;;27.10;44.19;101517.78;5071046;28;20032;-61
2021/03/16 07:50:42;;;;;;;11.85;4.57;;;;;;;27.24;44.33;101513.97;5072733;28;20531;-61
2021/03/16 07:53:08;;;;;;;12.48;4.97;;;;;;;27.41;44.97;101521.78;5089278;22;20050;-61
2021/03/16 07:55:33;;;;;;;15.75;5.22;;;;;;;27.31;44.83;101519.47;5106468;28;20458;-61
2021/03/16 07:58:06;;;;;;;17.60;5.35;;;;;;;27.15;45.79;101526.28;5111599;28;20015;-61
2021/03/16 08:00:32;;;;;;;12.18;4.13;;;;;;;27.07;46.61;101539.44;5110540;28;20122;-62
2021/03/16 08:03:02;;;;;;;16.13;4.90;;;;;;;27.04;46.92;101534.34;5092006;28;20111;-61
2021/03/16 08:05:39;;;;;;;17.33;5.47;;;;;;;26.99;46.88;101544.06;5091180;28;20110;-61
2021/03/16 08:08:18;;;;;;;10.75;4.20;;;;;;;26.99;46.73;101534.94;5090105;28;20383;-61
2021/03/16 08:10:44;;;;;;;15.10;4.80;;;;;;;27.01;47.13;101541.13;5090470;28;20055;-62
2021/03/16 08:13:17;;;;;;;15.27;5.25;;;;;;;27.03;47.00;101539.00;5090360;28;20130;-62
2021/03/16 08:15:44;;;;;;;12.52;4.05;;;;;;;27.01;46.76;101535.63;5093518;28;20015;-62
2021/03/16 08:18:10;;;;;;;11.55;4.28;;;;;;;27.12;46.55;101542.41;5092609;28;20364;-62
2021/03/16 08:20:36;;;;;;;11.93;4.35;;;;;;;26.97;47.55;101556.38;5092503;28;20555;-62
2021/03/16 08:23:10;;;;;;;12.27;4.22;;;;;;;27.01;46.42;101551.31;5092390;28;20119;-62
2021/03/16 08:25:36;;;;;;;17.10;5.45;;;;;;;27.00;46.45;101550.47;5092463;28;20065;-62
2021/03/16 08:28:06;;;;;;;11.30;4.88;;;;;;;27.06;46.28;101555.16;5092045;28;20032;-62
2021/03/16 08:30:33;;;;;;;14.57;5.05;;;;;;;27.08;46.47;101554.94;5092412;28;20108;-62
2021/03/16 08:33:07;;;;;;;13.40;4.30;;;;;;;27.09;45.11;101565.78;5092729;28;20065;-62
2021/03/16 08:35:32;;;;;;;11.40;4.93;;;;;;;27.01;46.62;101565.97;5106112;28;20078;-62
2021/03/16 08:37:57;;;;;;;13.02;4.60;;;;;;;27.17;45.20;101571.06;5093730;28;20504;-62
2021/03/16 08:40:24;;;;;;;13.52;4.68;;;;;;;27.09;46.19;101579.56;5092334;28;20028;-62
2021/03/16 08:42:49;;;;;;;12.98;5.47;;;;;;;26.99;46.36;101568.06;5101392;28;20035;-63
2021/03/16 08:45:25;;;;;;;13.70;4.57;;;;;;;27.01;46.49;101571.47;5092079;28;20681;-63
2021/03/16 08:47:51;;;;;;;15.25;5.57;;;;;;;26.98;45.86;101574.63;5110920;28;20408;-63
2021/03/16 08:50:21;;;;;;;11.70;4.93;;;;;;;26.93;45.40;101579.94;5101859;28;20026;-62
2021/03/16 08:52:47;;;;;;;13.00;5.50;;;;;;;26.99;45.74;101587.38;5095050;28;20028;-62
2021/03/16 08:55:23;;;;;;;14.43;5.70;;;;;;;26.95;45.55;101597.13;5093063;28;20097;-66
2021/03/16 08:57:48;;;;;;;17.75;5.38;;;;;;;26.89;46.18;101598.84;5106308;28;20070;-62
2021/03/16 09:00:14;;;;;;;13.48;5.22;;;;;;;26.94;46.28;101606.47;5092273;28;20027;-62
2021/03/16 09:02:39;;;;;;;12.93;4.78;;;;;;;27.06;45.00;101582.75;5092094;28;20378;-62
2021/03/16 09:05:05;;;;;;;14.43;4.72;;;;;;;27.02;45.16;101592.50;5092126;28;20039;-62
2021/03/16 09:07:36;;;;;;;15.00;5.22;;;;;;;27.03;45.63;101574.88;5075450;28;20060;-62
2021/03/16 09:10:10;;;;;;;13.05;4.60;;;;;;;26.98;44.97;101596.72;5090534;28;20023;-62
2021/03/16 09:12:37;;;;;;;14.70;5.55;;;;;;;27.05;45.29;101597.63;5072401;28;20024;-64
2021/03/16 09:15:19;;;;;;;16.15;4.97;;;;;;;27.11;45.38;101594.00;5072154;28;20024;-62
2021/03/16 09:17:48;;;;;;;15.05;5.20;;;;;;;27.25;44.58;101597.63;5087523;28;20063;-62
2021/03/16 09:20:20;;;;;;;15.38;5.80;;;;;;;27.44;44.46;101579.34;5097816;28;20028;-62
2021/03/16 09:23:00;;;;;;;12.55;4.97;;;;;;;27.45;45.51;101597.59;5098054;28;20367;-63
2021/03/16 09:25:32;;;;;;;13.23;4.70;;;;;;;27.22;46.35;101576.81;5090820;28;20032;-63
2021/03/16 09:28:01;;;;;;;14.35;4.93;;;;;;;27.23;45.41;101575.75;5090928;28;20107;-63
2021/03/16 09:30:39;;;;;;;12.23;4.22;;;;;;;27.16;46.08;101583.16;5091270;28;20427;-63
2021/03/16 09:33:07;;;;;;;11.60;4.72;;;;;;;27.09;45.77;101579.56;5093794;28;20034;-63
2021/03/16 09:35:33;;;;;;;14.05;4.63;;;;;;;27.08;45.24;101591.66;5089639;28;20034;-64
2021/03/16 09:37:59;;;;;;;16.48;5.35;;;;;;;26.83;45.29;101544.50;5093552;28;20028;-66
2021/03/16 09:40:44;;;;;;;11.65;3.80;;;;;;;26.84;45.76;101600.50;5089621;28;20023;-65
2021/03/16 09:43:36;;;;;;;11.75;4.03;;;;;;;26.95;45.75;101603.50;5091930;28;20045;-61
2021/03/16 09:46:07;;;;;;;13.65;3.88;;;;;;;27.00;45.90;101608.41;5093001;28;20078;-63
2021/03/16 09:48:33;;;;;;;12.43;4.22;;;;;;;26.98;45.93;101608.59;5062915;28;20124;-61
2021/03/16 09:51:10;;;;;;;13.90;4.80;;;;;;;27.06;45.60;101621.41;5082608;28;20389;-62
2021/03/16 09:53:35;;;;;;;15.63;5.03;;;;;;;27.06;46.48;101615.88;5092528;28;20059;-62
2021/03/16 09:56:02;;;;;;;15.88;5.70;;;;;;;27.01;46.72;101612.88;5094849;28;20505;-63
2021/03/16 09:58:29;;;;;;;14.43;5.20;;;;;;;27.23;46.49;101600.59;5093690;28;20028;-62
2021/03/16 10:00:55;;;;;;;14.23;5.80;;;;;;;27.07;47.27;101601.00;5092580;28;20540;-63
2021/03/16 10:03:21;;;;;;;14.07;4.63;;;;;;;27.15;47.24;101602.69;5092811;28;20459;-62
2021/03/16 10:05:48;;;;;;;12.10;4.50;;;;;;;27.13;47.66;101610.34;5092081;28;20027;-62
2021/03/16 10:08:24;;;;;;;14.20;5.45;;;;;;;27.02;47.39;101598.00;5091048;28;20058;-62
2021/03/16 10:10:50;;;;;;;16.00;4.93;;;;;;;27.05;47.68;101619.69;5091927;28;20031;-63
2021/03/16 10:13:16;;;;;;;12.30;4.57;;;;;;;27.02;48.14;101609.06;5092853;28;20400;-64
2021/03/16 10:15:44;;;;;;;13.60;4.50;;;;;;;27.02;47.12;101619.25;5097015;28;20024;-64
2021/03/16 10:18:11;;;;;;;14.77;4.78;;;;;;;26.93;47.40;101607.53;5094249;28;20525;-64
2021/03/16 10:20:43;;;;;;;12.90;4.18;;;;;;;26.92;47.44;101609.44;5098714;28;20036;-63
2021/03/16 10:23:15;;;;;;;8.00;3.33;;;;;;;26.82;45.64;101610.91;5083948;28;20036;-63
2021/03/16 10:25:41;;;;;;;9.20;2.80;;;;;;;26.89;45.98;101614.56;5095827;28;20020;-64
2021/03/16 10:28:08;;;;;;;10.63;3.75;;;;;;;27.09;45.25;101626.50;5091694;28;20032;-63
2021/03/16 10:30:43;;;;;;;10.35;3.83;;;;;;;27.01;46.11;101623.06;5094423;28;20511;-64
2021/03/16 10:33:10;;;;;;;11.82;3.95;;;;;;;27.03;45.81;101616.28;5104720;28;20111;-64
2021/03/16 10:35:37;;;;;;;12.10;4.60;;;;;;;27.09;45.55;101626.50;5094347;28;20042;-64
2021/03/16 10:38:04;;;;;;;10.65;4.07;;;;;;;27.14;45.40;101618.41;5092802;28;20050;-64
2021/03/16 10:40:30;;;;;;;14.45;4.95;;;;;;;27.12;45.92;101619.69;5081614;28;20024;-63
2021/03/16 10:42:56;;;;;;;10.15;4.25;;;;;;;27.15;46.49;101622.88;5098560;28;20035;-64
2021/03/16 10:45:21;;;;;;;12.75;5.25;;;;;;;27.08;46.11;101624.78;5113077;28;20023;-66
2021/03/16 10:47:47;;;;;;;10.07;3.90;;;;;;;27.03;46.26;101632.81;5092459;28;20058;-63
2021/03/16 10:50:13;;;;;;;13.48;4.72;;;;;;;27.03;45.66;101632.81;5093778;28;20107;-64
2021/03/16 10:52:38;;;;;;;17.10;4.95;;;;;;;26.97;45.71;101633.66;5094428;28;20119;-64
2021/03/16 10:55:04;;;;;;;12.40;4.28;;;;;;;27.03;45.12;101621.78;5091786;28;20042;-67
2021/03/16 10:57:30;;;;;;;13.50;4.30;;;;;;;26.93;44.95;101626.84;5073230;28;20348;-65
2021/03/16 10:59:55;;;;;;;12.32;3.60;;;;;;;26.99;44.95;101614.97;5092271;28;20066;-65
2021/03/16 11:02:20;;;;;;;14.25;5.25;;;;;;;27.12;44.99;101636.25;5093454;28;20046;-64
2021/03/16 11:04:46;;;;;;;16.80;5.22;;;;;;;27.13;44.86;101633.28;5091846;28;20042;-64
2021/03/16 11:07:11;;;;;;;14.52;5.10;;;;;;;27.13;45.02;101638.78;5091932;28;20055;-64
2021/03/16 11:09:37;;;;;;;13.93;4.78;;;;;;;27.04;45.11;101648.31;5092553;28;20028;-64
2021/03/16 11:12:02;;;;;;;15.73;5.15;;;;;;;27.09;44.92;101648.56;5093253;28;20496;-64
2021/03/16 11:14:27;;;;;;;11.40;3.80;;;;;;;27.14;45.06;101634.97;5093237;28;20024;-64
2021/03/16 11:16:53;;;;;;;10.50;3.67;;;;;;;27.34;44.56;101643.25;5092070;28;20020;-64
2021/03/16 11:19:18;;;;;;;12.43;4.25;;;;;;;27.49;44.71;101648.56;5093055;28;20042;-64
2021/03/16 11:21:43;;;;;;;12.07;4.95;;;;;;;27.50;45.23;101639.22;5092638;28;20023;-64